createdAt,value
2022-10-29T00:02:08.911Z,12.82
2022-10-29T00:04:35.862Z,13.98
2022-10-29T00:07:02.823Z,13.52
2022-10-29T00:09:29.877Z,13.35
2022-10-29T00:11:56.833Z,11.80
2022-10-29T00:14:23.806Z,11.10
2022-10-29T00:16:50.782Z,11.43
2022-10-29T00:19:17.800Z,11.85
2022-10-29T00:21:44.764Z,11.32
2022-10-29T00:24:11.868Z,11.18
2022-10-29T00:26:38.795Z,10.60
2022-10-29T00:29:05.943Z,10.88
2022-10-29T00:31:32.991Z,11.05
2022-10-29T00:34:00.347Z,10.27
2022-10-29T00:36:29.815Z,10.57
2022-10-29T00:38:57.578Z,10.80
2022-10-29T00:41:27.560Z,12.30
2022-10-29T00:46:51.628Z,11.65
2022-10-29T00:49:20.154Z,12.20
2022-10-29T00:51:48.331Z,11.15
2022-10-29T00:54:16.972Z,11.75
2022-10-29T00:56:49.472Z,11.32
2022-10-29T00:59:17.593Z,11.27
2022-10-29T01:01:47.127Z,11.30
2022-10-29T01:04:14.647Z,11.73
2022-10-29T01:06:47.252Z,11.73
2022-10-29T01:09:14.466Z,11.02
2022-10-29T01:12:05.789Z,11.52
2022-10-29T01:14:54.233Z,11.23
2022-10-29T01:17:41.355Z,10.98
2022-10-29T01:20:27.207Z,11.13
2022-10-29T01:23:15.519Z,10.60
2022-10-29T01:26:00.889Z,11.30
2022-10-29T01:28:36.955Z,10.10
2022-10-29T01:31:23.406Z,10.20
2022-10-29T01:34:17.444Z,10.30
2022-10-29T01:36:58.077Z,10.10
2022-10-29T01:39:37.607Z,10.05
2022-10-29T01:42:23.399Z,9.95
2022-10-29T01:44:59.098Z,9.68
2022-10-29T01:47:32.099Z,10.30
2022-10-29T01:50:07.504Z,11.05
2022-10-29T01:52:36.287Z,11.18
2022-10-29T01:55:03.927Z,12.18
2022-10-29T01:57:33.496Z,12.70
2022-10-29T02:00:05.663Z,11.98
2022-10-29T02:03:19.286Z,12.25
2022-10-29T02:05:56.513Z,11.55
2022-10-29T02:08:56.113Z,13.25
2022-10-29T02:11:34.156Z,12.38
2022-10-29T02:14:20.818Z,12.85
2022-10-29T02:16:48.558Z,11.93
2022-10-29T02:19:15.880Z,13.35
2022-10-29T02:21:44.401Z,13.25
2022-10-29T02:24:11.842Z,11.98
2022-10-29T02:26:38.807Z,11.65
2022-10-29T02:29:05.741Z,11.85
2022-10-29T02:31:32.761Z,11.18
2022-10-29T02:33:59.701Z,11.70
2022-10-29T02:36:26.667Z,13.15
2022-10-29T02:38:53.631Z,12.10
2022-10-29T02:41:20.657Z,12.40
2022-10-29T02:43:47.662Z,11.93
2022-10-29T02:46:17.517Z,11.27
2022-10-29T02:48:44.813Z,11.93
2022-10-29T02:51:11.858Z,11.85
2022-10-29T02:53:39.033Z,11.20
2022-10-29T02:56:07.074Z,13.05
2022-10-29T02:58:34.489Z,12.38
2022-10-29T03:01:02.044Z,13.05
2022-10-29T03:03:29.522Z,11.40
2022-10-29T03:05:56.449Z,11.02
2022-10-29T03:08:23.508Z,12.05
2022-10-29T03:10:50.522Z,12.15
2022-10-29T03:13:18.270Z,12.13
2022-10-29T03:15:45.960Z,10.77
2022-10-29T03:18:13.115Z,11.27
2022-10-29T03:20:40.293Z,12.80
2022-10-29T03:23:07.271Z,12.13
2022-10-29T03:25:34.195Z,12.43
2022-10-29T03:28:01.196Z,12.35
2022-10-29T03:30:28.134Z,11.95
2022-10-29T03:32:55.367Z,12.68
2022-10-29T03:35:22.548Z,12.10
2022-10-29T03:37:51.119Z,12.32
2022-10-29T03:40:18.953Z,11.93
2022-10-29T03:42:46.541Z,13.45
2022-10-29T03:45:13.515Z,15.00
2022-10-29T03:47:40.515Z,13.07
2022-10-29T03:50:08.144Z,13.10
2022-10-29T03:52:35.161Z,13.63
2022-10-29T03:55:02.116Z,13.15
2022-10-29T03:57:29.070Z,12.48
2022-10-29T03:59:56.537Z,11.80
2022-10-29T04:02:24.725Z,10.80
2022-10-29T04:04:51.783Z,11.30
2022-10-29T04:07:19.203Z,10.55
2022-10-29T04:09:46.155Z,13.70
2022-10-29T04:12:13.223Z,12.02
2022-10-29T04:14:44.584Z,11.65
2022-10-29T04:17:12.959Z,10.95
2022-10-29T04:19:40.755Z,10.20
2022-10-29T04:30:28.942Z,9.73
2022-10-29T04:33:00.359Z,10.20
2022-10-29T04:35:28.856Z,10.07
2022-10-29T04:37:55.985Z,10.02
2022-10-29T04:40:24.622Z,9.25
2022-10-29T04:42:51.829Z,9.65
2022-10-29T04:45:19.415Z,9.55
2022-10-29T04:47:46.574Z,9.63
2022-10-29T04:50:13.629Z,8.57
2022-10-29T04:52:41.404Z,16.25
2022-10-29T04:55:08.755Z,10.75
2022-10-29T04:57:35.683Z,9.90
2022-10-29T05:00:02.734Z,8.20
2022-10-29T05:02:29.686Z,10.15
2022-10-29T05:04:56.661Z,9.35
2022-10-29T05:07:23.723Z,9.02
2022-10-29T05:09:50.736Z,8.95
2022-10-29T05:12:17.748Z,9.55
2022-10-29T05:14:44.734Z,10.27
2022-10-29T05:17:11.706Z,9.90
2022-10-29T05:19:38.723Z,9.25
2022-10-29T05:22:05.714Z,9.10
2022-10-29T05:24:32.702Z,9.15
2022-10-29T05:26:59.667Z,9.60
2022-10-29T05:29:26.677Z,9.52
2022-10-29T05:31:54.730Z,9.32
2022-10-29T05:34:21.778Z,9.80
2022-10-29T05:36:49.371Z,8.65
2022-10-29T05:39:16.436Z,9.10
2022-10-29T05:41:43.715Z,7.90
2022-10-29T05:44:10.788Z,8.55
2022-10-29T05:46:37.963Z,8.30
2022-10-29T05:49:04.993Z,8.10
2022-10-29T05:51:32.129Z,8.45
2022-10-29T05:53:59.163Z,8.40
2022-10-29T05:56:26.077Z,9.13
2022-10-29T05:58:53.056Z,8.23
2022-10-29T06:01:20.046Z,8.00
2022-10-29T06:03:47.699Z,8.07
2022-10-29T06:06:14.810Z,8.30
2022-10-29T06:08:41.863Z,8.40
2022-10-29T06:11:08.845Z,7.40
2022-10-29T06:13:35.854Z,8.60
2022-10-29T06:16:02.992Z,8.02
2022-10-29T06:18:30.314Z,8.30
2022-10-29T06:21:00.752Z,9.07
2022-10-29T06:23:28.729Z,8.15
2022-10-29T06:25:55.763Z,7.55
2022-10-29T06:28:22.718Z,8.82
2022-10-29T06:30:51.206Z,9.02
2022-10-29T06:33:19.594Z,8.82
2022-10-29T06:35:47.233Z,8.32
2022-10-29T06:38:14.942Z,7.82
2022-10-29T06:40:43.381Z,7.90
2022-10-29T06:43:12.466Z,9.25
2022-10-29T06:45:39.627Z,7.05
2022-10-29T06:48:07.141Z,6.63
2022-10-29T06:50:34.312Z,6.40
2022-10-29T06:53:06.601Z,7.57
2022-10-29T06:55:34.878Z,7.75
2022-10-29T06:58:04.453Z,7.28
2022-10-29T07:00:32.456Z,7.03
2022-10-29T07:03:00.234Z,6.60
2022-10-29T07:05:27.666Z,6.93
2022-10-29T07:07:57.067Z,6.38
2022-10-29T07:10:25.564Z,9.43
2022-10-29T07:12:52.654Z,6.65
2022-10-29T07:15:19.641Z,6.57
2022-10-29T07:17:59.158Z,6.65
2022-10-29T07:20:27.944Z,7.18
2022-10-29T07:22:54.900Z,6.70
2022-10-29T07:25:21.894Z,7.55
2022-10-29T07:27:48.920Z,7.18
2022-10-29T07:30:16.724Z,7.15
2022-10-29T07:32:43.739Z,6.65
2022-10-29T07:35:10.924Z,6.78
2022-10-29T07:37:38.157Z,7.18
2022-10-29T07:40:06.128Z,6.78
2022-10-29T07:42:33.058Z,5.72
2022-10-29T07:45:00.002Z,6.85
2022-10-29T07:47:27.094Z,6.70
2022-10-29T07:49:54.097Z,6.32
2022-10-29T07:52:21.020Z,6.45
2022-10-29T07:54:48.174Z,7.13
2022-10-29T07:57:16.056Z,6.88
2022-10-29T07:59:43.070Z,7.07
2022-10-29T08:02:11.389Z,7.45
2022-10-29T08:04:38.522Z,6.38
2022-10-29T08:07:05.528Z,6.47
2022-10-29T08:09:32.451Z,7.50
2022-10-29T08:11:59.584Z,6.65
2022-10-29T08:14:26.625Z,6.60
2022-10-29T08:16:54.869Z,6.38
2022-10-29T08:19:22.580Z,6.88
2022-10-29T08:21:49.550Z,6.18
2022-10-29T08:24:16.633Z,6.93
2022-10-29T08:26:43.613Z,6.88
2022-10-29T08:29:10.626Z,7.43
2022-10-29T08:31:37.582Z,7.45
2022-10-29T08:34:09.957Z,6.50
2022-10-29T08:36:37.997Z,6.85
2022-10-29T08:39:04.977Z,7.60
2022-10-29T08:42:19.492Z,6.80
2022-10-29T08:45:12.655Z,7.00
2022-10-29T08:47:58.846Z,7.75
2022-10-29T08:50:31.078Z,7.65
2022-10-29T08:53:22.158Z,8.32
2022-10-29T08:55:46.987Z,7.75
2022-10-29T08:58:19.374Z,7.60
2022-10-29T09:00:49.900Z,8.00
2022-10-29T09:03:16.998Z,8.52
2022-10-29T09:05:54.705Z,8.07
2022-10-29T09:08:50.332Z,8.55
2022-10-29T09:11:41.703Z,8.73
2022-10-29T09:14:57.032Z,9.38
2022-10-29T09:17:39.372Z,10.80
2022-10-29T09:20:40.559Z,10.77
2022-10-29T09:23:28.959Z,11.52
2022-10-29T09:26:11.035Z,10.13
2022-10-29T09:28:44.193Z,10.50
2022-10-29T09:31:14.057Z,10.82
2022-10-29T09:36:16.252Z,11.90
2022-10-29T09:39:09.813Z,10.35
2022-10-29T09:41:38.702Z,10.88
2022-10-29T09:44:30.949Z,10.30
2022-10-29T09:47:20.923Z,10.25
2022-10-29T09:50:08.327Z,10.40
2022-10-29T09:52:39.997Z,10.10
2022-10-29T09:55:40.057Z,9.98
2022-10-29T09:58:10.005Z,10.50
2022-10-29T10:03:13.626Z,10.48
2022-10-29T10:06:04.225Z,10.40
2022-10-29T10:08:32.526Z,10.63
2022-10-29T10:11:01.918Z,10.90
2022-10-29T10:13:38.576Z,10.27
2022-10-29T10:16:06.885Z,10.45
2022-10-29T10:18:33.900Z,10.73
2022-10-29T10:21:05.954Z,10.30
2022-10-29T10:23:41.418Z,10.88
2022-10-29T10:26:30.029Z,10.82
2022-10-29T10:29:19.495Z,12.05
2022-10-29T10:32:09.702Z,11.05
2022-10-29T10:34:38.888Z,11.63
2022-10-29T10:37:12.119Z,11.77
2022-10-29T10:39:42.967Z,11.57
2022-10-29T10:42:32.596Z,13.65
2022-10-29T10:45:06.180Z,14.23
2022-10-29T10:47:36.825Z,13.75
2022-10-29T10:50:13.674Z,14.40
2022-10-29T10:52:41.288Z,13.75
2022-10-29T10:55:23.105Z,13.32
2022-10-29T10:58:11.567Z,13.90
2022-10-29T11:00:46.867Z,14.48
2022-10-29T11:03:21.587Z,15.07
2022-10-29T11:06:22.982Z,16.33
2022-10-29T11:09:29.408Z,16.65
2022-10-29T11:12:13.800Z,15.88
2022-10-29T11:15:04.493Z,15.43
2022-10-29T11:17:39.591Z,17.38
2022-10-29T11:20:16.591Z,16.80
2022-10-29T11:22:56.721Z,16.70
2022-10-29T11:25:35.690Z,18.48
2022-10-29T11:28:16.497Z,17.13
2022-10-29T11:30:52.305Z,17.48
2022-10-29T11:33:25.611Z,17.27
2022-10-29T11:36:14.439Z,16.98
2022-10-29T11:38:50.217Z,17.48
2022-10-29T11:41:32.093Z,16.58
2022-10-29T11:43:59.208Z,17.38
2022-10-29T11:46:46.213Z,16.85
2022-10-29T11:49:52.018Z,16.98
2022-10-29T11:52:36.784Z,15.20
2022-10-29T11:55:40.726Z,15.35
2022-10-29T11:58:12.789Z,12.10
2022-10-29T12:00:53.578Z,12.07
2022-10-29T12:03:51.599Z,14.18
2022-10-29T12:06:41.204Z,14.30
2022-10-29T12:09:23.354Z,14.23
2022-10-29T12:12:01.432Z,14.70
2022-10-29T12:14:43.940Z,13.55
2022-10-29T12:17:21.219Z,14.23
2022-10-29T12:20:02.444Z,12.73
2022-10-29T12:22:37.424Z,14.85
2022-10-29T12:25:15.362Z,13.18
2022-10-29T12:27:54.391Z,14.82
2022-10-29T12:30:24.216Z,14.32
2022-10-29T12:35:44.023Z,13.85
2022-10-29T12:38:33.279Z,13.68
2022-10-29T12:41:17.745Z,14.27
2022-10-29T12:43:45.908Z,14.40
2022-10-29T12:46:42.889Z,13.38
2022-10-29T12:49:18.746Z,12.32
2022-10-29T12:52:46.211Z,13.65
2022-10-29T12:55:16.522Z,14.88
2022-10-29T12:57:43.813Z,14.57
2022-10-29T13:00:25.889Z,13.35
2022-10-29T13:02:56.844Z,12.95
2022-10-29T13:05:37.580Z,13.10
2022-10-29T13:08:04.532Z,12.93
2022-10-29T13:10:33.972Z,13.23
2022-10-29T13:13:15.876Z,12.93
2022-10-29T13:15:46.686Z,12.35
2022-10-29T13:18:44.597Z,11.65
2022-10-29T13:21:11.718Z,11.88
2022-10-29T13:23:38.817Z,11.10
2022-10-29T13:26:07.660Z,10.63
2022-10-29T13:28:37.201Z,9.93
2022-10-29T13:31:04.174Z,11.93
2022-10-29T13:33:31.127Z,9.68
2022-10-29T13:36:21.086Z,10.18
2022-10-29T13:39:05.593Z,10.43
2022-10-29T13:41:45.157Z,11.63
2022-10-29T13:44:20.841Z,11.43
2022-10-29T13:47:01.806Z,11.88
2022-10-29T13:49:37.969Z,11.23
2022-10-29T13:52:14.910Z,11.35
2022-10-29T13:55:07.925Z,12.05
2022-10-29T13:57:40.659Z,12.38
2022-10-29T14:00:10.573Z,11.98
2022-10-29T14:02:40.318Z,12.93
2022-10-29T14:05:23.953Z,13.18
2022-10-29T14:07:53.971Z,13.15
2022-10-29T14:10:26.690Z,14.10
2022-10-29T14:13:11.254Z,12.25
2022-10-29T14:15:42.627Z,13.38
2022-10-29T14:18:25.141Z,12.35
2022-10-29T14:20:56.866Z,13.93
2022-10-29T14:23:24.814Z,13.50
2022-10-29T14:25:56.616Z,14.30
2022-10-29T14:28:23.496Z,14.18
2022-10-29T14:31:07.371Z,14.18
2022-10-29T14:33:36.934Z,16.10
2022-10-29T14:36:15.182Z,15.32
2022-10-29T14:38:56.717Z,16.00
2022-10-29T14:41:25.761Z,17.13
2022-10-29T14:44:01.456Z,18.40
2022-10-29T14:46:31.514Z,18.75
2022-10-29T14:49:06.215Z,18.42
2022-10-29T14:51:39.908Z,19.13
2022-10-29T14:54:09.687Z,20.73
2022-10-29T14:59:15.569Z,20.58
2022-10-29T15:01:49.442Z,20.40
2022-10-29T15:04:28.119Z,19.75
2022-10-29T15:07:34.653Z,20.02
2022-10-29T15:10:20.694Z,21.08
2022-10-29T15:12:48.648Z,22.17
2022-10-29T15:15:18.885Z,22.63
2022-10-29T15:20:41.879Z,21.70
2022-10-29T15:23:20.952Z,21.60
2022-10-29T15:25:51.021Z,23.70
2022-10-29T15:28:27.307Z,25.27
2022-10-29T15:30:54.634Z,27.30
2022-10-29T15:33:26.774Z,28.55
2022-10-29T15:35:57.494Z,27.88
2022-10-29T15:38:30.560Z,28.65
2022-10-29T15:41:30.936Z,28.63
2022-10-29T15:43:58.624Z,27.05
2022-10-29T15:46:28.313Z,27.15
2022-10-29T15:48:55.558Z,29.13
2022-10-29T15:51:30.578Z,31.02
2022-10-29T15:54:02.897Z,29.77
2022-10-29T15:56:31.786Z,29.55
2022-10-29T15:59:00.603Z,29.05
2022-10-29T16:01:27.817Z,30.20
2022-10-29T16:03:54.865Z,31.30
2022-10-29T16:06:21.850Z,29.23
2022-10-29T16:08:55.716Z,31.40
2022-10-29T16:11:22.988Z,30.83
2022-10-29T16:13:54.462Z,33.67
2022-10-29T16:16:24.854Z,33.60
2022-10-29T16:18:52.932Z,32.60
2022-10-29T16:21:24.496Z,33.92
2022-10-29T16:23:52.177Z,36.35
2022-10-29T16:26:25.975Z,35.45
2022-10-29T16:28:53.491Z,34.72
2022-10-29T16:31:29.916Z,34.95
2022-10-29T16:33:59.085Z,35.22
2022-10-29T16:36:26.074Z,36.93
2022-10-29T16:38:53.101Z,36.58
2022-10-29T16:41:20.453Z,35.92
2022-10-29T16:43:48.353Z,35.72
2022-10-29T16:46:15.959Z,34.17
2022-10-29T16:48:43.552Z,35.65
2022-10-29T16:51:10.578Z,35.47
2022-10-29T16:53:37.574Z,36.40
2022-10-29T16:56:05.009Z,37.03
2022-10-29T16:58:31.943Z,35.10
2022-10-29T17:01:06.437Z,36.35
2022-10-29T17:03:34.445Z,35.72
2022-10-29T17:06:06.697Z,35.75
2022-10-29T17:08:34.990Z,34.75
2022-10-29T17:11:04.255Z,35.75
2022-10-29T17:13:31.314Z,36.00
2022-10-29T17:15:58.293Z,37.78
2022-10-29T17:18:25.464Z,35.25
2022-10-29T17:21:00.333Z,35.42
2022-10-29T17:23:28.665Z,35.35
2022-10-29T17:25:57.213Z,36.17
2022-10-29T17:28:25.997Z,37.28
2022-10-29T17:30:53.369Z,34.08
2022-10-29T17:33:20.427Z,34.72
2022-10-29T17:35:47.824Z,36.10
2022-10-29T17:38:14.847Z,33.08
2022-10-29T17:40:44.721Z,31.95
2022-10-29T17:45:41.996Z,33.33
2022-10-29T17:48:08.990Z,34.28
2022-10-29T17:50:35.963Z,34.10
2022-10-29T17:53:03.595Z,33.78
2022-10-29T17:55:30.559Z,34.65
2022-10-29T17:57:57.770Z,35.15
2022-10-29T18:00:25.670Z,35.08
2022-10-29T18:02:52.671Z,32.40
2022-10-29T18:05:19.878Z,32.72
2022-10-29T18:07:47.048Z,34.17
2022-10-29T18:10:14.134Z,33.90
2022-10-29T18:12:41.151Z,34.50
2022-10-29T18:15:08.721Z,33.53
2022-10-29T18:17:36.729Z,34.50
2022-10-29T18:20:04.185Z,34.78
2022-10-29T18:22:31.182Z,34.85
2022-10-29T18:24:58.370Z,33.85
2022-10-29T18:27:25.466Z,35.88
2022-10-29T18:29:52.398Z,36.67
2022-10-29T18:32:20.192Z,34.70
2022-10-29T18:34:47.184Z,37.28
2022-10-29T18:37:14.245Z,34.92
2022-10-29T18:39:41.221Z,33.58
2022-10-29T18:42:08.466Z,33.53
2022-10-29T18:44:35.734Z,34.92
2022-10-29T18:47:02.856Z,35.45
2022-10-29T18:49:29.953Z,34.80
2022-10-29T18:51:56.913Z,37.65
2022-10-29T18:54:24.080Z,36.72
2022-10-29T18:56:51.204Z,34.03
2022-10-29T18:59:18.173Z,37.70
2022-10-29T19:01:45.338Z,35.35
2022-10-29T19:04:14.855Z,37.30
2022-10-29T19:06:41.967Z,41.53
2022-10-29T19:09:10.966Z,37.03
2022-10-29T19:11:38.413Z,37.77
2022-10-29T19:14:08.260Z,35.47
2022-10-29T19:19:08.103Z,36.22
2022-10-29T19:21:36.318Z,35.42
2022-10-29T19:24:04.693Z,36.67
2022-10-29T19:26:33.817Z,37.65
2022-10-29T19:29:03.111Z,35.40
2022-10-29T19:31:31.929Z,35.40
2022-10-29T19:34:00.967Z,38.97
2022-10-29T19:36:29.317Z,36.53
2022-10-29T19:38:57.130Z,38.53
2022-10-29T19:41:24.387Z,35.85
2022-10-29T19:43:51.601Z,36.03
2022-10-29T19:46:24.341Z,37.30
2022-10-29T19:48:53.591Z,35.05
2022-10-29T19:51:21.826Z,35.27
2022-10-29T19:53:51.620Z,33.67
2022-10-29T19:58:46.932Z,35.50
2022-10-29T20:01:19.151Z,37.33
2022-10-29T20:03:47.120Z,37.25
2022-10-29T20:06:15.184Z,36.17
2022-10-29T20:08:42.423Z,38.05
2022-10-29T20:11:11.929Z,37.03
2022-10-29T20:13:40.237Z,34.13
2022-10-29T20:16:14.040Z,35.47
2022-10-29T20:18:41.035Z,34.80
2022-10-29T20:21:13.450Z,37.53
2022-10-29T20:23:40.986Z,34.75
2022-10-29T20:26:08.333Z,34.67
2022-10-29T20:28:35.688Z,34.70
2022-10-29T20:31:17.897Z,34.45
2022-10-29T20:33:56.051Z,35.28
2022-10-29T20:36:24.737Z,35.90
2022-10-29T20:38:52.707Z,33.53
2022-10-29T20:41:21.466Z,33.60
2022-10-29T20:43:57.041Z,31.90
2022-10-29T20:46:25.147Z,30.45
2022-10-29T20:48:54.360Z,34.30
2022-10-29T20:51:22.933Z,30.75
2022-10-29T20:53:50.771Z,29.45
2022-10-29T20:56:19.633Z,29.63
2022-10-29T20:58:46.768Z,28.77
2022-10-29T21:01:16.657Z,29.92
2022-10-29T21:06:17.116Z,29.83
2022-10-29T21:08:48.236Z,30.73
2022-10-29T21:11:16.667Z,28.25
2022-10-29T21:13:43.675Z,29.02
2022-10-29T21:16:16.464Z,28.45
2022-10-29T21:18:46.180Z,29.60
2022-10-29T21:21:13.627Z,28.02
2022-10-29T21:23:41.285Z,27.55
2022-10-29T21:26:12.091Z,29.83
2022-10-29T21:28:39.116Z,30.08
2022-10-29T21:31:06.468Z,29.30
2022-10-29T21:33:33.570Z,29.10
2022-10-29T21:36:00.521Z,30.10
2022-10-29T21:38:29.220Z,28.77
2022-10-29T21:40:56.356Z,26.13
2022-10-29T21:43:23.319Z,27.13
2022-10-29T21:45:51.544Z,42.25
2022-10-29T21:48:19.134Z,31.52
2022-10-29T21:50:47.091Z,29.50
2022-10-29T21:56:02.977Z,29.52
2022-10-29T21:58:30.218Z,29.15
2022-10-29T22:01:11.606Z,29.10
2022-10-29T22:03:43.131Z,29.40
2022-10-29T22:06:21.818Z,29.80
2022-10-29T22:08:54.111Z,28.52
2022-10-29T22:11:21.086Z,30.13
2022-10-29T22:13:48.137Z,29.33
2022-10-29T22:16:15.190Z,28.33
2022-10-29T22:18:42.269Z,28.48
2022-10-29T22:21:16.290Z,29.98
2022-10-29T22:23:51.242Z,29.52
2022-10-29T22:26:20.259Z,26.80
2022-10-29T22:28:47.395Z,26.23
2022-10-29T22:31:15.996Z,26.90
2022-10-29T22:33:43.944Z,30.13
2022-10-29T22:36:16.762Z,27.35
2022-10-29T22:38:44.183Z,27.85
2022-10-29T22:41:16.940Z,33.00
2022-10-29T22:43:44.909Z,27.17
2022-10-29T22:46:16.231Z,27.50
2022-10-29T22:48:46.117Z,25.98
2022-10-29T22:51:14.622Z,26.65
2022-10-29T22:53:41.670Z,25.92
2022-10-29T22:56:14.263Z,28.40
2022-10-29T22:58:41.641Z,29.52
2022-10-29T23:01:11.642Z,27.70
2022-10-29T23:03:39.811Z,27.27
2022-10-29T23:06:08.804Z,25.38
2022-10-29T23:08:36.113Z,29.00
2022-10-29T23:11:16.748Z,31.58
2022-10-29T23:13:43.755Z,26.70
2022-10-29T23:16:10.689Z,30.65
2022-10-29T23:18:37.701Z,26.55
2022-10-29T23:21:06.073Z,27.65
2022-10-29T23:23:34.210Z,28.20
2022-10-29T23:26:02.541Z,26.23
2022-10-29T23:28:32.008Z,29.02
2022-10-29T23:31:00.586Z,29.30
2022-10-29T23:33:28.676Z,29.85
2022-10-29T23:35:55.983Z,30.02
2022-10-29T23:38:22.929Z,28.88
2022-10-29T23:40:49.916Z,27.10
2022-10-29T23:43:16.873Z,25.42
2022-10-29T23:45:43.855Z,24.25
2022-10-29T23:48:11.226Z,22.20
2022-10-29T23:50:38.737Z,22.58
2022-10-29T23:53:07.158Z,20.98
2022-10-29T23:55:35.104Z,20.70
2022-10-29T23:58:02.642Z,23.48
